createdAt,value
2022-08-01T00:01:25.956Z,15.57
2022-08-01T00:03:58.464Z,15.49
2022-08-01T00:06:31.085Z,15.48
2022-08-01T00:09:03.556Z,15.47
2022-08-01T00:11:36.155Z,15.50
2022-08-01T00:14:10.106Z,15.49
2022-08-01T00:16:42.574Z,15.48
2022-08-01T00:19:14.972Z,15.43
2022-08-01T00:21:52.106Z,15.41
2022-08-01T00:24:24.859Z,15.42
2022-08-01T00:26:57.259Z,15.39
2022-08-01T00:30:10.841Z,15.42
2022-08-01T00:32:22.933Z,15.40
2022-08-01T00:34:56.340Z,15.33
2022-08-01T00:37:28.823Z,15.35
2022-08-01T00:40:01.365Z,15.31
2022-08-01T00:42:33.827Z,15.28
2022-08-01T00:45:08.369Z,15.25
2022-08-01T00:47:41.144Z,15.28
2022-08-01T00:50:13.632Z,15.30
2022-08-01T00:52:51.335Z,15.24
2022-08-01T00:55:24.760Z,15.20
2022-08-01T00:58:04.649Z,15.11
2022-08-01T01:00:52.632Z,15.13
2022-08-01T01:03:56.294Z,15.21
2022-08-01T01:06:29.140Z,15.11
2022-08-01T01:09:24.511Z,15.01
2022-08-01T01:12:09.367Z,15.03
2022-08-01T01:14:46.984Z,14.97
2022-08-01T01:17:49.735Z,15.00
2022-08-01T01:20:18.172Z,14.98
2022-08-01T01:23:21.207Z,14.88
2022-08-01T01:26:14.391Z,14.83
2022-08-01T01:29:02.513Z,14.79
2022-08-01T01:31:42.831Z,14.65
2022-08-01T01:34:19.095Z,14.73
2022-08-01T01:36:55.030Z,14.73
2022-08-01T01:39:30.531Z,14.63
2022-08-01T01:42:05.654Z,14.57
2022-08-01T01:44:39.867Z,14.60
2022-08-01T01:47:14.731Z,14.59
2022-08-01T01:49:49.522Z,14.56
2022-08-01T01:52:24.723Z,14.49
2022-08-01T01:54:59.674Z,14.49
2022-08-01T01:57:36.784Z,14.36
2022-08-01T02:00:12.275Z,14.36
2022-08-01T02:02:45.597Z,14.41
2022-08-01T02:05:19.087Z,14.40
2022-08-01T02:07:54.027Z,14.44
2022-08-01T02:10:34.719Z,14.34
2022-08-01T02:13:07.912Z,14.36
2022-08-01T02:16:00.465Z,14.33
2022-08-01T02:18:33.859Z,14.34
2022-08-01T02:21:12.858Z,14.16
2022-08-01T02:23:45.326Z,14.21
2022-08-01T02:26:20.187Z,14.27
2022-08-01T02:28:58.139Z,14.19
2022-08-01T02:31:35.713Z,14.21
2022-08-01T02:34:10.910Z,14.18
2022-08-01T02:36:45.330Z,14.13
2022-08-01T02:39:20.299Z,14.02
2022-08-01T02:41:58.439Z,13.99
2022-08-01T02:44:36.122Z,13.97
2022-08-01T02:47:10.552Z,14.00
2022-08-01T02:49:44.902Z,13.81
2022-08-01T02:52:27.547Z,13.81
2022-08-01T02:55:01.843Z,13.79
2022-08-01T02:57:51.739Z,13.83
2022-08-01T03:00:27.111Z,13.84
2022-08-01T03:03:02.210Z,13.79
2022-08-01T03:05:36.584Z,13.83
2022-08-01T03:08:11.936Z,13.85
2022-08-01T03:10:49.179Z,13.72
2022-08-01T03:13:24.038Z,13.73
2022-08-01T03:15:57.757Z,13.72
2022-08-01T03:18:33.042Z,13.67
2022-08-01T03:21:07.620Z,13.63
2022-08-01T03:23:42.254Z,13.59
2022-08-01T03:26:15.297Z,13.58
2022-08-01T03:28:49.835Z,13.53
2022-08-01T03:31:22.999Z,13.53
2022-08-01T03:33:56.046Z,13.60
2022-08-01T03:36:30.790Z,13.52
2022-08-01T03:39:07.566Z,13.36
2022-08-01T03:41:44.219Z,13.47
2022-08-01T03:44:21.132Z,13.49
2022-08-01T03:46:59.054Z,13.47
2022-08-01T03:49:35.786Z,13.54
2022-08-01T03:52:09.658Z,13.44
2022-08-01T03:54:46.568Z,13.41
2022-08-01T03:57:35.190Z,13.47
2022-08-01T04:00:10.515Z,13.45
2022-08-01T04:02:47.219Z,13.47
2022-08-01T04:05:20.545Z,13.46
2022-08-01T04:07:56.011Z,13.53
2022-08-01T04:10:28.900Z,13.35
2022-08-01T04:13:02.013Z,13.39
2022-08-01T04:15:35.303Z,13.49
2022-08-01T04:18:07.718Z,13.53
2022-08-01T04:20:41.771Z,13.58
2022-08-01T04:23:15.742Z,13.64
2022-08-01T04:25:50.995Z,13.67
2022-08-01T04:28:24.957Z,13.63
2022-08-01T04:31:02.003Z,13.71
2022-08-01T04:33:36.798Z,13.72
2022-08-01T04:36:11.806Z,13.71
2022-08-01T04:38:46.992Z,13.68
2022-08-01T04:41:20.798Z,13.64
2022-08-01T04:43:55.343Z,13.72
2022-08-01T04:46:29.316Z,13.77
2022-08-01T04:49:02.783Z,13.89
2022-08-01T04:51:36.310Z,13.94
2022-08-01T04:54:08.765Z,14.03
2022-08-01T04:56:41.898Z,14.05
2022-08-01T04:59:32.522Z,14.03
2022-08-01T05:02:05.273Z,14.06
2022-08-01T05:04:40.020Z,14.19
2022-08-01T05:07:13.975Z,14.32
2022-08-01T05:09:46.634Z,14.41
2022-08-01T05:12:19.244Z,14.55
2022-08-01T05:14:51.649Z,14.68
2022-08-01T05:17:24.031Z,14.80
2022-08-01T05:19:56.485Z,14.91
2022-08-01T05:22:29.575Z,15.00
2022-08-01T05:25:01.994Z,15.11
2022-08-01T05:27:39.584Z,15.28
2022-08-01T05:30:12.344Z,15.49
2022-08-01T05:32:44.814Z,15.67
2022-08-01T05:35:17.298Z,15.79
2022-08-01T05:37:50.514Z,15.92
2022-08-01T05:40:22.967Z,16.08
2022-08-01T05:42:55.394Z,16.23
2022-08-01T05:45:28.398Z,16.45
2022-08-01T05:48:00.774Z,16.61
2022-08-01T05:50:34.312Z,16.83
2022-08-01T05:53:08.012Z,17.00
2022-08-01T05:55:40.398Z,17.16
2022-08-01T05:58:12.865Z,17.34
2022-08-01T06:00:45.305Z,17.55
2022-08-01T06:03:17.723Z,17.73
2022-08-01T06:05:50.135Z,17.82
2022-08-01T06:08:23.284Z,17.96
2022-08-01T06:10:55.808Z,18.11
2022-08-01T06:13:28.432Z,18.24
2022-08-01T06:16:00.827Z,18.41
2022-08-01T06:18:33.279Z,18.59
2022-08-01T06:21:05.822Z,18.70
2022-08-01T06:23:38.888Z,18.54
2022-08-01T06:26:11.591Z,18.76
2022-08-01T06:28:43.931Z,18.89
2022-08-01T06:31:16.287Z,19.02
2022-08-01T06:33:48.731Z,18.95
2022-08-01T06:36:21.199Z,19.12
2022-08-01T06:38:54.371Z,19.26
2022-08-01T06:41:26.780Z,19.24
2022-08-01T06:44:02.520Z,19.55
2022-08-01T06:46:35.733Z,19.54
2022-08-01T06:49:08.583Z,19.73
2022-08-01T06:51:41.359Z,19.78
2022-08-01T06:54:14.573Z,20.08
2022-08-01T06:56:46.922Z,19.80
2022-08-01T06:59:19.372Z,19.90
2022-08-01T07:01:51.740Z,20.23
2022-08-01T07:04:24.130Z,20.50
2022-08-01T07:06:56.985Z,20.63
2022-08-01T07:09:30.164Z,20.87
2022-08-01T07:12:02.722Z,21.02
2022-08-01T07:14:35.327Z,20.95
2022-08-01T07:17:07.735Z,21.09
2022-08-01T07:19:40.174Z,21.18
2022-08-01T07:22:14.304Z,21.38
2022-08-01T07:24:56.712Z,21.28
2022-08-01T07:27:29.097Z,21.47
2022-08-01T07:30:01.844Z,21.69
2022-08-01T07:32:35.906Z,21.79
2022-08-01T07:35:09.031Z,21.98
2022-08-01T07:37:45.395Z,22.09
2022-08-01T07:40:22.543Z,22.08
2022-08-01T07:42:55.017Z,21.81
2022-08-01T07:45:27.573Z,22.02
2022-08-01T07:48:03.875Z,21.71
2022-08-01T07:50:41.350Z,21.84
2022-08-01T07:53:13.778Z,21.81
2022-08-01T07:55:46.826Z,21.72
2022-08-01T07:58:19.841Z,21.94
2022-08-01T08:00:52.242Z,22.07
2022-08-01T08:03:24.749Z,22.17
2022-08-01T08:05:59.898Z,22.21
2022-08-01T08:08:34.870Z,22.11
2022-08-01T08:11:08.068Z,21.81
2022-08-01T08:13:40.464Z,21.75
2022-08-01T08:16:12.932Z,21.58
2022-08-01T08:18:45.334Z,21.63
2022-08-01T08:21:17.776Z,21.90
2022-08-01T08:24:08.054Z,22.10
2022-08-01T08:26:42.437Z,22.26
2022-08-01T08:29:15.062Z,22.21
2022-08-01T08:31:50.762Z,22.26
2022-08-01T08:34:25.506Z,22.44
2022-08-01T08:36:59.377Z,22.51
2022-08-01T08:39:32.081Z,22.36
2022-08-01T08:42:15.248Z,22.48
2022-08-01T08:44:47.698Z,22.45
2022-08-01T08:47:20.924Z,22.64
2022-08-01T08:49:56.047Z,22.68
2022-08-01T08:52:28.978Z,22.96
2022-08-01T08:55:02.167Z,23.18
2022-08-01T08:57:35.611Z,23.16
2022-08-01T09:00:11.313Z,23.19
2022-08-01T09:02:45.571Z,23.43
2022-08-01T09:05:19.864Z,23.49
2022-08-01T09:07:52.674Z,23.73
2022-08-01T09:10:25.063Z,23.77
2022-08-01T09:13:08.238Z,24.15
2022-08-01T09:15:43.576Z,24.39
2022-08-01T09:18:31.824Z,24.36
2022-08-01T09:21:16.635Z,24.22
2022-08-01T09:23:54.187Z,24.09
2022-08-01T09:26:31.066Z,24.49
2022-08-01T09:29:07.486Z,24.51
2022-08-01T09:31:47.750Z,24.64
2022-08-01T09:34:26.103Z,24.73
2022-08-01T09:37:00.918Z,24.70
2022-08-01T09:39:36.752Z,24.73
2022-08-01T09:42:28.898Z,24.80
2022-08-01T09:45:02.849Z,24.88
2022-08-01T09:47:38.983Z,24.90
2022-08-01T09:50:11.672Z,24.92
2022-08-01T09:52:54.302Z,24.74
2022-08-01T09:55:27.493Z,24.74
2022-08-01T09:58:01.249Z,24.95
2022-08-01T10:00:45.343Z,24.77
2022-08-01T10:03:22.862Z,24.92
2022-08-01T10:05:57.502Z,24.87
2022-08-01T10:08:46.590Z,25.04
2022-08-01T10:11:19.846Z,24.88
2022-08-01T10:13:52.795Z,24.83
2022-08-01T10:16:29.454Z,24.94
2022-08-01T10:19:03.618Z,24.91
2022-08-01T10:21:47.687Z,25.38
2022-08-01T10:24:30.988Z,25.47
2022-08-01T10:27:09.135Z,25.56
2022-08-01T10:30:05.176Z,25.62
2022-08-01T10:32:42.670Z,26.03
2022-08-01T10:35:17.561Z,26.07
2022-08-01T10:38:13.378Z,26.09
2022-08-01T10:40:46.320Z,26.03
2022-08-01T10:43:21.943Z,26.35
2022-08-01T10:45:55.904Z,26.33
2022-08-01T10:48:39.243Z,26.22
2022-08-01T10:51:17.998Z,25.82
2022-08-01T10:53:54.122Z,25.81
2022-08-01T10:56:40.472Z,26.06
2022-08-01T10:59:50.061Z,25.98
2022-08-01T11:02:27.368Z,26.32
2022-08-01T11:05:14.440Z,26.45
2022-08-01T11:07:52.369Z,26.40
2022-08-01T11:10:32.974Z,26.17
2022-08-01T11:13:07.979Z,26.34
2022-08-01T11:15:50.547Z,26.19
2022-08-01T11:18:33.129Z,26.41
2022-08-01T11:21:58.027Z,26.36
2022-08-01T11:23:58.672Z,26.37
2022-08-01T11:26:31.230Z,26.50
2022-08-01T11:29:21.493Z,26.29
2022-08-01T11:31:54.152Z,26.35
2022-08-01T11:34:53.932Z,25.95
2022-08-01T11:37:30.542Z,25.94
2022-08-01T11:40:16.796Z,26.08
2022-08-01T11:42:50.895Z,26.49
2022-08-01T11:45:49.987Z,26.65
2022-08-01T11:48:23.346Z,26.33
2022-08-01T11:51:02.142Z,26.11
2022-08-01T11:53:37.758Z,25.17
2022-08-01T11:56:13.608Z,25.69
2022-08-01T11:58:50.576Z,25.79
2022-08-01T12:01:23.168Z,26.03
2022-08-01T12:03:56.851Z,25.92
2022-08-01T12:06:30.406Z,25.73
2022-08-01T12:09:17.256Z,25.81
2022-08-01T12:11:50.215Z,25.92
2022-08-01T12:14:22.642Z,26.20
2022-08-01T12:16:55.162Z,26.31
2022-08-01T12:19:27.652Z,26.19
2022-08-01T12:22:07.920Z,26.22
2022-08-01T12:24:42.918Z,26.32
2022-08-01T12:27:26.078Z,26.23
2022-08-01T12:29:59.706Z,26.14
2022-08-01T12:32:37.275Z,26.04
2022-08-01T12:35:13.257Z,25.92
2022-08-01T12:37:49.714Z,25.67
2022-08-01T12:40:24.658Z,25.65
2022-08-01T12:42:58.803Z,25.71
2022-08-01T12:45:34.646Z,25.98
2022-08-01T12:48:09.303Z,25.91
2022-08-01T12:50:43.828Z,25.91
2022-08-01T12:53:18.894Z,26.19
2022-08-01T12:55:58.648Z,26.32
2022-08-01T12:58:33.514Z,26.40
2022-08-01T13:01:07.708Z,26.37
2022-08-01T13:03:40.945Z,25.92
2022-08-01T13:06:15.194Z,25.80
2022-08-01T13:08:47.587Z,26.09
2022-08-01T13:11:20.723Z,26.20
2022-08-01T13:13:53.539Z,26.23
2022-08-01T13:16:43.215Z,26.12
2022-08-01T13:19:19.387Z,26.05
2022-08-01T13:21:56.177Z,25.90
2022-08-01T13:24:29.540Z,25.89
2022-08-01T13:27:05.215Z,25.76
2022-08-01T13:29:41.370Z,25.81
2022-08-01T13:32:28.877Z,25.91
2022-08-01T13:35:04.080Z,25.59
2022-08-01T13:37:37.170Z,25.05
2022-08-01T13:40:12.655Z,24.77
2022-08-01T13:42:45.703Z,25.13
2022-08-01T13:45:18.170Z,25.11
2022-08-01T13:48:03.779Z,25.10
2022-08-01T13:50:53.356Z,25.19
2022-08-01T13:53:34.555Z,25.22
2022-08-01T13:56:06.953Z,25.39
2022-08-01T13:58:40.078Z,25.49
2022-08-01T14:01:12.713Z,25.39
2022-08-01T14:03:45.187Z,25.15
2022-08-01T14:06:18.637Z,24.69
2022-08-01T14:08:51.076Z,24.80
2022-08-01T14:11:23.827Z,24.99
2022-08-01T14:13:57.191Z,25.19
2022-08-01T14:16:29.802Z,25.15
2022-08-01T14:19:02.224Z,25.38
2022-08-01T14:21:36.439Z,25.54
2022-08-01T14:24:09.911Z,25.46
2022-08-01T14:26:42.292Z,25.32
2022-08-01T14:29:15.427Z,25.16
2022-08-01T14:31:47.823Z,25.40
2022-08-01T14:34:20.171Z,25.37
2022-08-01T14:36:53.964Z,25.41
2022-08-01T14:39:28.988Z,25.32
2022-08-01T14:42:02.313Z,25.50
2022-08-01T14:44:39.480Z,25.50
2022-08-01T14:47:22.596Z,25.50
2022-08-01T14:49:55.187Z,25.52
2022-08-01T14:52:27.684Z,25.58
2022-08-01T14:55:00.089Z,25.68
2022-08-01T14:57:32.907Z,25.69
2022-08-01T15:00:10.150Z,25.77
2022-08-01T15:02:43.035Z,25.86
2022-08-01T15:05:15.391Z,25.90
2022-08-01T15:07:52.465Z,25.93
2022-08-01T15:10:26.324Z,26.05
2022-08-01T15:13:00.110Z,26.13
2022-08-01T15:15:33.229Z,26.11
2022-08-01T15:18:05.707Z,26.19
2022-08-01T15:20:38.180Z,26.07
2022-08-01T15:23:10.570Z,25.91
2022-08-01T15:25:43.004Z,25.87
2022-08-01T15:28:15.390Z,25.87
2022-08-01T15:30:48.506Z,25.56
2022-08-01T15:33:21.983Z,25.68
2022-08-01T15:35:54.363Z,25.67
2022-08-01T15:38:26.788Z,25.65
2022-08-01T15:40:59.345Z,25.45
2022-08-01T15:43:31.768Z,25.44
2022-08-01T15:46:05.399Z,25.33
2022-08-01T15:48:40.084Z,25.28
2022-08-01T15:51:12.912Z,25.03
2022-08-01T15:53:46.706Z,24.69
2022-08-01T15:56:19.073Z,24.70
2022-08-01T15:58:51.582Z,24.73
2022-08-01T16:01:26.114Z,24.75
2022-08-01T16:03:59.259Z,24.60
2022-08-01T16:06:32.007Z,24.56
2022-08-01T16:09:05.243Z,24.52
2022-08-01T16:11:42.544Z,24.58
2022-08-01T16:14:23.840Z,24.47
2022-08-01T16:16:56.894Z,24.47
2022-08-01T16:19:29.310Z,24.57
2022-08-01T16:22:01.932Z,24.58
2022-08-01T16:24:35.635Z,24.66
2022-08-01T16:27:08.455Z,24.64
2022-08-01T16:29:41.128Z,24.58
2022-08-01T16:32:16.433Z,24.58
2022-08-01T16:35:07.041Z,24.60
2022-08-01T16:37:39.859Z,24.58
2022-08-01T16:40:12.560Z,24.56
2022-08-01T16:42:44.930Z,24.65
2022-08-01T16:45:20.407Z,24.65
2022-08-01T16:47:54.007Z,24.64
2022-08-01T16:50:28.177Z,24.60
2022-08-01T16:53:01.747Z,24.55
2022-08-01T16:55:49.904Z,24.54
2022-08-01T16:58:28.052Z,24.48
2022-08-01T17:01:58.330Z,24.43
2022-08-01T17:03:56.935Z,24.45
2022-08-01T17:06:33.362Z,24.51
2022-08-01T17:09:05.892Z,24.48
2022-08-01T17:11:38.387Z,24.43
2022-08-01T17:14:10.754Z,24.39
2022-08-01T17:16:43.406Z,24.24
2022-08-01T17:19:16.491Z,24.17
2022-08-01T17:21:48.915Z,24.18
2022-08-01T17:24:21.324Z,23.91
2022-08-01T17:26:53.675Z,23.75
2022-08-01T17:29:26.904Z,23.65
2022-08-01T17:31:59.341Z,23.63
2022-08-01T17:34:33.626Z,23.55
2022-08-01T17:37:06.318Z,23.43
2022-08-01T17:39:40.084Z,23.39
2022-08-01T17:42:12.714Z,23.46
2022-08-01T17:44:46.064Z,23.50
2022-08-01T17:47:48.088Z,23.33
2022-08-01T17:50:15.537Z,23.28
2022-08-01T17:52:48.259Z,23.24
2022-08-01T17:55:55.929Z,23.13
2022-08-01T17:58:13.816Z,22.98
2022-08-01T18:00:46.203Z,22.94
2022-08-01T18:03:23.092Z,22.93
2022-08-01T18:06:04.009Z,22.95
2022-08-01T18:08:39.568Z,22.92
2022-08-01T18:11:12.086Z,22.91
2022-08-01T18:13:45.072Z,22.71
2022-08-01T18:16:17.583Z,22.72
2022-08-01T18:18:50.010Z,22.73
2022-08-01T18:21:23.159Z,22.57
2022-08-01T18:23:55.563Z,22.50
2022-08-01T18:26:28.539Z,22.58
2022-08-01T18:29:00.935Z,22.62
2022-08-01T18:31:34.755Z,22.47
2022-08-01T18:34:07.168Z,22.57
2022-08-01T18:36:40.478Z,22.66
2022-08-01T18:39:13.435Z,22.69
2022-08-01T18:41:46.711Z,22.50
2022-08-01T18:44:19.077Z,22.55
2022-08-01T18:46:52.180Z,22.55
2022-08-01T18:49:24.572Z,22.61
2022-08-01T18:51:57.802Z,22.67
2022-08-01T18:54:30.525Z,22.72
2022-08-01T18:57:03.138Z,22.70
2022-08-01T18:59:35.550Z,22.62
2022-08-01T19:02:11.540Z,22.69
2022-08-01T19:04:43.964Z,22.67
2022-08-01T19:07:28.654Z,22.62
2022-08-01T19:10:10.807Z,22.46
2022-08-01T19:12:43.267Z,22.39
2022-08-01T19:15:15.708Z,22.40
2022-08-01T19:17:48.149Z,22.42
2022-08-01T19:20:20.532Z,22.44
2022-08-01T19:22:53.625Z,22.38
2022-08-01T19:25:26.565Z,22.25
2022-08-01T19:27:59.751Z,22.16
2022-08-01T19:30:35.801Z,22.09
2022-08-01T19:33:09.015Z,21.85
2022-08-01T19:35:42.065Z,21.82
2022-08-01T19:38:15.315Z,21.70
2022-08-01T19:40:49.234Z,21.67
2022-08-01T19:43:21.771Z,21.63
2022-08-01T19:45:54.643Z,21.49
2022-08-01T19:48:27.728Z,21.46
2022-08-01T19:51:04.302Z,21.43
2022-08-01T19:53:39.360Z,21.43
2022-08-01T19:56:13.767Z,21.27
2022-08-01T19:58:52.021Z,21.11
2022-08-01T20:01:24.383Z,20.96
2022-08-01T20:03:59.550Z,20.94
2022-08-01T20:06:35.967Z,20.86
2022-08-01T20:09:08.967Z,20.68
2022-08-01T20:11:44.328Z,20.53
2022-08-01T20:14:18.818Z,20.50
2022-08-01T20:16:53.339Z,20.38
2022-08-01T20:19:28.718Z,20.33
2022-08-01T20:22:05.268Z,20.24
2022-08-01T20:24:44.102Z,20.06
2022-08-01T20:27:18.644Z,20.04
2022-08-01T20:29:52.335Z,20.04
2022-08-01T20:32:28.880Z,19.86
2022-08-01T20:35:03.063Z,19.62
2022-08-01T20:38:06.757Z,19.58
2022-08-01T20:40:32.505Z,19.38
2022-08-01T20:43:05.171Z,19.28
2022-08-01T20:45:37.725Z,19.29
2022-08-01T20:48:11.651Z,19.31
2022-08-01T20:51:03.247Z,19.27
2022-08-01T20:53:39.966Z,19.15
2022-08-01T20:56:20.686Z,19.00
2022-08-01T20:59:39.704Z,19.00
2022-08-01T21:02:16.694Z,19.02
2022-08-01T21:04:56.738Z,18.82
2022-08-01T21:07:33.620Z,18.92
2022-08-01T21:10:08.556Z,18.72
2022-08-01T21:12:46.255Z,18.56
2022-08-01T21:15:26.799Z,18.41
2022-08-01T21:18:04.195Z,18.18
2022-08-01T21:20:39.923Z,18.24
2022-08-01T21:23:21.668Z,18.17
2022-08-01T21:25:56.985Z,18.19
2022-08-01T21:28:33.787Z,18.17
2022-08-01T21:31:08.333Z,18.15
2022-08-01T21:34:03.057Z,18.04
2022-08-01T21:36:34.997Z,17.93
2022-08-01T21:39:07.405Z,17.94
2022-08-01T21:42:01.442Z,17.89
2022-08-01T21:44:38.612Z,17.91
2022-08-01T21:47:11.658Z,17.73
2022-08-01T21:49:44.399Z,17.69
2022-08-01T21:52:21.836Z,17.73
2022-08-01T21:55:03.707Z,17.83
2022-08-01T21:57:54.882Z,17.67
2022-08-01T22:00:28.198Z,17.56
2022-08-01T22:03:16.338Z,17.59
2022-08-01T22:05:51.563Z,17.58
2022-08-01T22:08:29.279Z,17.58
2022-08-01T22:11:04.708Z,17.62
2022-08-01T22:13:37.527Z,17.64
2022-08-01T22:16:14.656Z,17.61
2022-08-01T22:18:48.169Z,17.59
2022-08-01T22:21:21.356Z,17.52
2022-08-01T22:23:54.060Z,17.34
2022-08-01T22:26:29.541Z,17.33
2022-08-01T22:29:04.697Z,17.39
2022-08-01T22:31:38.565Z,17.38
2022-08-01T22:34:12.039Z,17.33
2022-08-01T22:36:44.490Z,17.27
2022-08-01T22:39:25.759Z,17.22
2022-08-01T22:42:02.735Z,17.08
2022-08-01T22:44:43.363Z,17.00
2022-08-01T22:47:22.764Z,17.03
2022-08-01T22:50:04.750Z,17.04
2022-08-01T22:52:43.919Z,17.01
2022-08-01T22:55:20.175Z,17.06
2022-08-01T22:57:58.350Z,17.06
2022-08-01T23:00:33.447Z,17.05
2022-08-01T23:03:13.684Z,16.96
2022-08-01T23:05:55.086Z,16.96
2022-08-01T23:08:28.270Z,16.98
2022-08-01T23:11:02.252Z,16.96
2022-08-01T23:13:34.655Z,16.90
2022-08-01T23:16:07.751Z,16.83
2022-08-01T23:18:44.527Z,16.82
2022-08-01T23:21:19.531Z,16.80
2022-08-01T23:23:53.696Z,16.80
2022-08-01T23:26:28.573Z,16.80
2022-08-01T23:29:01.743Z,16.74
2022-08-01T23:31:58.188Z,16.68
2022-08-01T23:34:27.767Z,16.67
2022-08-01T23:37:00.215Z,16.34
2022-08-01T23:39:32.701Z,16.34
2022-08-01T23:42:07.401Z,16.31
2022-08-01T23:44:40.436Z,16.32
2022-08-01T23:47:14.618Z,16.34
2022-08-01T23:49:53.164Z,16.31
2022-08-01T23:52:28.041Z,16.27
2022-08-01T23:55:14.703Z,16.21
2022-08-01T23:57:48.529Z,16.24
